Flight Track Log - Related Links

Times and Time Zones

All times are in EDT time to prevent confusion due to time zone crossing. See the UAL3776 flight status page for this flight to view local times or setup timezone preferences in your user account.

Time Position Orientation Groundspeed Altitude Reporting Facility
EDT Latitude Longitude Course Direction KTS MPH feet Rate Location/Type
Mon 03:46:17 PM 38.8667 -77.5333 180° South 246 283 5,100  Level Potomac TRACON
Mon 03:48:43 PM 38.6869 -77.5517 185° South 268 308 11,700 2,330 Climbing Washington Center
Mon 03:49:00 PM 38.4518 -77.6823 185° South  Level Estimated
Mon 03:49:43 PM 38.5908 -77.5572 183° South 307 353 13,100  Level Washington Center
Mon 03:50:00 PM 38.3526 -77.7264 218° Southwest  Level Estimated
Mon 03:50:43 PM 38.4864 -77.5650 183° South 350 403 14,800  Level Washington Center
Mon 03:51:43 PM 38.3797 -77.5861 189° South 376 433 16,800 1,750 Climbing Washington Center
Mon 03:52:43 PM 38.2867 -77.6631 213° Southwest 376 433 18,300 1,750 Climbing Washington Center
Mon 03:53:43 PM 38.1978 -77.7425 215° Southwest 386 444 20,300 1,750 Climbing Washington Center
Mon 03:54:43 PM 38.1044 -77.8217 214° Southwest 405 466 21,800 850 Climbing Washington Center
Mon 03:55:43 PM 37.9986 -77.9053 212° Southwest 402 463 22,000 100 Climbing Washington Center
Mon 03:56:43 PM 37.9033 -77.9867 214° Southwest 412 474 22,000  Level Washington Center
Mon 03:57:43 PM 37.8078 -78.0703 215° Southwest 412 474 22,000  Level Washington Center
Mon 03:58:43 PM 37.7142 -78.1514 214° Southwest 418 481 22,000  Level Washington Center
Mon 03:59:43 PM 37.6208 -78.2319 214° Southwest 418 481 22,000  Level Washington Center
Mon 04:00:43 PM 37.5231 -78.3125 213° Southwest 418 481 22,000  Level Washington Center
Mon 04:01:43 PM 37.4272 -78.3928 214° Southwest 418 481 22,000 -250 Level Washington Center
Mon 04:02:43 PM 37.3256 -78.4594 208° Southwest 418 481 21,500 -800 Descending Washington Center
Mon 04:03:43 PM 37.2200 -78.5131 202° Southwest 418 481 20,400 -1,250 Descending Washington Center
Mon 04:04:43 PM 37.1250 -78.5614 202° Southwest 412 474 19,000 -1,250 Descending Washington Center
Mon 04:05:43 PM 37.0214 -78.6147 202° Southwest 412 474 17,900 -1,300 Descending Washington Center
Mon 04:06:43 PM 36.9178 -78.6678 202° Southwest 412 474 16,400 -1,450 Descending Washington Center
Mon 04:07:43 PM 36.8164 -78.7183 202° Southwest 402 463 15,000 -1,450 Descending Washington Center
Mon 04:08:43 PM 36.7064 -78.7758 203° Southwest 397 457 13,500 -1,448 Descending Washington Center
Mon 04:09:39 PM 36.6069 -78.8289 203° Southwest 381 438 12,200 -1,327 Descending Washington Center
Mon 04:10:27 PM 36.5347 -78.8672 203° Southwest 377 434 11,200 -1,125 Descending Washington Center
Mon 04:10:43 PM 36.5072 -78.8817 203° Southwest 392 451 11,000 -1,075 Descending Washington Center
Mon 04:11:34 PM 36.4228 -78.9219 201° Southwest 373 429 10,000 -638 Descending Washington Center
Mon 04:12:17 PM 36.3558 -78.9242 182° South 359 413 10,000 87 Level Washington Center
Mon 04:12:43 PM 36.3144 -78.9122 167° South 356 410 10,100  Climbing Washington Center
Mon 04:13:17 PM 36.2586 -78.8994 170° South 359 413 10,000 -300 Descending Washington Center
Mon 04:13:43 PM 36.2233 -78.8850 162° South 343 395 9,800 -985 Descending Washington Center
Mon 04:14:24 PM 36.1736 -78.8753 171° South 272 313 8,900 -1,100 Descending Washington Center
Mon 04:14:43 PM 36.1489 -78.8639 160° South 303 349 8,700 -885 Descending Washington Center
Mon 04:15:25 PM 36.0992 -78.8542 171° South 235 270 8,000 -600 Descending Washington Center
Mon 04:15:43 PM 36.0867 -78.8486 160° South 266 306 8,100  Climbing Washington Center
Mon 04:16:26 PM 36.0411 -78.8414 173° South 212 244 8,000  Descending Washington Center
Mon 04:16:43 PM 36.0244 -78.8408 178° South 242 278 8,100 -100 Climbing Washington Center
Mon 04:17:26 PM 35.9783 -78.8467 186° South 226 260 7,900 -500 Descending Washington Center
Mon 04:17:43 PM 35.9636 -78.8536 201° Southwest 228 262 7,600 -1,200 Descending Washington Center
Mon 04:18:21 PM 35.9272 -78.8856 215° Southwest 233 268 6,800 -1,000 Descending Washington Center
Mon 04:18:43 PM 35.9142 -78.9006 223° Southwest 224 258 6,600 -716 Descending Washington Center
Mon 04:19:28 PM 35.8819 -78.9400 225° Southwest 224 258 6,000 -424 Descending Washington Center
Mon 04:20:22 PM 35.8386 -78.9919 224° Southwest 229 264 5,900 -614 Descending Washington Center
Mon 04:21:35 PM 35.7844 -79.0614 226° Southwest 229 264 4,700 -1,075 Descending Washington Center
Mon 04:22:36 PM 35.7331 -79.0361 158° South 208 239 3,500 -793 Descending Washington Center
Mon 04:23:36 PM 35.7219 -78.9819 104° East 182 209 3,100 -248 Descending Washington Center
Mon 04:24:37 PM 35.7650 -78.9378 40° Northeast 187 215 3,000 -295 Descending Washington Center
Mon 04:25:38 PM 35.7975 -78.8981 45° Northeast 176 203 2,500 -678 Descending Washington Center
Mon 04:26:32 PM 35.8256 -78.8633 45° Northeast 150 173 1,700 -889 Descending Washington Center

Login

Don't have an account? Register now (free) for customized features, flight alerts, and more!